Time;durP1;ratioP1;P1;durP2;ratioP2;P2;SDS_P1;SDS_P2;PMS_P1;PMS_P2;Temp;Humidity;BMP_temperature;BMP_pressure;BME280_temperature;BME280_humidity;BME280_pressure;Samples;Min_cycle;Max_cycle;Signal;HPM_P1;HPM_P2
2022/04/02 00:03:53;;;;;;;4.03;3.40;;;;;;;;;;10252631;28;20502;-80
2022/04/02 00:08:55;;;;;;;4.17;3.40;;;;;;;;;;10245237;28;20881;-80
2022/04/02 00:13:57;;;;;;;4.90;3.47;;;;;;;;;;10241472;28;20434;-80
2022/04/02 00:19:01;;;;;;;4.10;3.70;;;;;;;;;;10254415;23;20536;-81
2022/04/02 00:24:02;;;;;;;4.53;3.80;;;;;;;;;;10254329;28;20523;-83
2022/04/02 00:29:07;;;;;;;6.05;3.92;;;;;;;;;;10253142;28;20422;-81
2022/04/02 00:34:10;;;;;;;4.65;4.03;;;;;;;;;;10245805;28;20519;-81
2022/04/02 00:39:12;;;;;;;6.20;3.83;;;;;;;;;;10238370;29;20416;-82
2022/04/02 00:44:17;;;;;;;4.53;3.75;;;;;;;;;;10245547;28;20432;-81
2022/04/02 00:49:20;;;;;;;5.30;3.65;;;;;;;;;;10251783;28;20463;-82
2022/04/02 00:54:23;;;;;;;4.60;3.83;;;;;;;;;;10253871;28;20489;-82
2022/04/02 00:59:25;;;;;;;4.33;3.57;;;;;;;;;;10249875;28;20933;-81
2022/04/02 01:04:28;;;;;;;6.22;3.75;;;;;;;;;;10252123;28;20421;-81
2022/04/02 01:09:30;;;;;;;5.10;3.63;;;;;;;;;;10237109;29;20425;-82
2022/04/02 01:14:31;;;;;;;6.45;3.90;;;;;;;;;;10237118;28;20502;-82
2022/04/02 01:19:36;;;;;;;5.80;4.13;;;;;;;;;;10251526;28;20507;-81
2022/04/02 01:24:39;;;;;;;5.18;4.10;;;;;;;;;;10255149;28;20543;-82
2022/04/02 01:29:41;;;;;;;4.78;4.18;;;;;;;;;;10249805;28;20462;-82
2022/04/02 01:34:43;;;;;;;4.82;4.10;;;;;;;;;;10244130;28;20443;-81
2022/04/02 01:39:46;;;;;;;5.07;3.83;;;;;;;;;;10252526;28;20415;-82
2022/04/02 01:44:51;;;;;;;5.50;4.43;;;;;;;;;;10241592;28;20435;-81
2022/04/02 01:49:53;;;;;;;4.97;3.73;;;;;;;;;;10252383;28;20898;-81
2022/04/02 01:54:56;;;;;;;4.85;3.97;;;;;;;;;;10254212;28;20438;-80
2022/04/02 01:59:58;;;;;;;5.13;4.60;;;;;;;;;;10236423;28;20417;-80
2022/04/02 02:05:00;;;;;;;5.57;4.47;;;;;;;;;;10253250;28;20421;-81
2022/04/02 02:10:04;;;;;;;5.30;4.80;;;;;;;;;;10257235;28;20477;-81
2022/04/02 02:15:07;;;;;;;6.07;5.20;;;;;;;;;;10256917;28;20873;-81
2022/04/02 02:20:10;;;;;;;7.60;5.80;;;;;;;;;;10255062;28;20790;-81
2022/04/02 02:25:15;;;;;;;8.07;3.30;;;;;;;;;;10257070;28;20434;-82
2022/04/02 02:30:17;;;;;;;9.53;4.27;;;;;;;;;;10256535;28;20969;-81
2022/04/02 02:40:41;;;;;;;6.80;4.03;;;;;;;;;;10254160;28;20471;-80
2022/04/02 02:45:43;;;;;;;6.75;4.70;;;;;;;;;;10257028;28;20414;-81
2022/04/02 02:50:45;;;;;;;8.63;5.00;;;;;;;;;;10255389;28;20497;-81
2022/04/02 02:55:50;;;;;;;7.45;5.38;;;;;;;;;;10257549;28;20632;-80
2022/04/02 03:00:52;;;;;;;7.30;5.40;;;;;;;;;;10264644;28;20423;-81
2022/04/02 03:05:53;;;;;;;7.32;4.88;;;;;;;;;;10262399;28;20418;-81
2022/04/02 03:10:57;;;;;;;6.60;4.90;;;;;;;;;;10263273;28;20420;-81
2022/04/02 03:15:59;;;;;;;5.40;4.20;;;;;;;;;;10259383;28;20450;-81
2022/04/02 03:21:01;;;;;;;7.50;3.97;;;;;;;;;;10259932;28;20505;-80
2022/04/02 03:26:04;;;;;;;9.77;3.17;;;;;;;;;;10262439;28;20410;-82
2022/04/02 03:31:06;;;;;;;7.07;3.30;;;;;;;;;;10263713;28;20509;-82
2022/04/02 03:36:10;;;;;;;6.75;3.00;;;;;;;;;;10258954;28;20433;-82
2022/04/02 03:41:13;;;;;;;6.25;3.10;;;;;;;;;;10260500;28;20444;-82
2022/04/02 03:51:34;;;;;;;8.05;3.10;;;;;;;;;;10261427;28;20391;-82
2022/04/02 03:56:38;;;;;;;6.30;3.45;;;;;;;;;;10261855;28;20437;-82
2022/04/02 04:01:40;;;;;;;6.95;3.20;;;;;;;;;;10261257;28;20490;-82
2022/04/02 04:06:42;;;;;;;5.30;3.00;;;;;;;;;;10248619;28;20511;-82
2022/04/02 04:11:45;;;;;;;6.65;2.92;;;;;;;;;;10239176;28;20498;-81
2022/04/02 04:16:47;;;;;;;6.33;3.10;;;;;;;;;;10239652;28;20527;-82
2022/04/02 04:21:49;;;;;;;6.20;3.20;;;;;;;;;;10239619;29;20413;-81
2022/04/02 04:26:53;;;;;;;6.80;3.17;;;;;;;;;;10238701;29;21004;-81
2022/04/02 04:31:55;;;;;;;6.53;3.30;;;;;;;;;;10238858;28;20423;-81
2022/04/02 04:36:57;;;;;;;7.85;3.63;;;;;;;;;;10255085;28;20445;-81
2022/04/02 04:42:00;;;;;;;7.37;3.73;;;;;;;;;;10237628;29;21009;-80
2022/04/02 04:47:02;;;;;;;7.72;3.90;;;;;;;;;;10241779;28;20420;-81
2022/04/02 04:52:04;;;;;;;8.73;4.70;;;;;;;;;;10253585;28;20519;-81
2022/04/02 04:57:07;;;;;;;8.85;4.28;;;;;;;;;;10254848;28;20436;-81
2022/04/02 05:02:12;;;;;;;8.07;4.80;;;;;;;;;;10252733;28;20416;-80
2022/04/02 05:07:14;;;;;;;8.43;4.78;;;;;;;;;;10252979;28;20896;-81
2022/04/02 05:12:18;;;;;;;7.57;4.38;;;;;;;;;;10245071;28;20412;-81
2022/04/02 05:17:20;;;;;;;7.78;4.70;;;;;;;;;;10238134;28;20519;-81
2022/04/02 05:22:22;;;;;;;8.25;3.90;;;;;;;;;;10237194;28;20419;-81
2022/04/02 05:27:25;;;;;;;7.27;4.37;;;;;;;;;;10237019;28;20496;-81
2022/04/02 05:32:28;;;;;;;7.82;4.88;;;;;;;;;;10230464;28;20429;-82
2022/04/02 05:37:29;;;;;;;7.60;5.37;;;;;;;;;;10227023;28;20442;-82
2022/04/02 05:42:33;;;;;;;7.95;4.50;;;;;;;;;;10239833;28;20419;-80
2022/04/02 05:47:42;;;;;;;8.17;4.47;;;;;;;;;;10237453;28;20431;-82
2022/04/02 05:52:44;;;;;;;7.10;3.90;;;;;;;;;;10247067;28;20420;-81
2022/04/02 05:57:47;;;;;;;7.67;4.60;;;;;;;;;;10243804;28;20440;-80
2022/04/02 06:02:50;;;;;;;7.30;4.40;;;;;;;;;;10231510;28;20486;-81
2022/04/02 06:07:51;;;;;;;9.30;4.35;;;;;;;;;;10229409;28;20459;-80
2022/04/02 06:12:57;;;;;;;7.07;3.67;;;;;;;;;;10234478;28;21019;-81
2022/04/02 06:17:59;;;;;;;7.97;4.60;;;;;;;;;;10232549;28;20442;-82
2022/04/02 06:23:01;;;;;;;8.98;4.50;;;;;;;;;;10243432;28;20419;-81
2022/04/02 06:28:05;;;;;;;5.85;3.30;;;;;;;;;;10243084;28;21262;-81
2022/04/02 06:33:06;;;;;;;8.00;3.30;;;;;;;;;;10242019;28;20416;-81
2022/04/02 06:38:08;;;;;;;8.20;3.97;;;;;;;;;;10247920;28;20799;-81
2022/04/02 06:43:12;;;;;;;6.70;3.77;;;;;;;;;;10246394;28;20924;-81
2022/04/02 06:48:14;;;;;;;8.40;4.25;;;;;;;;;;10253620;28;20416;-82
2022/04/02 06:53:16;;;;;;;9.13;3.97;;;;;;;;;;10247141;28;20407;-82
2022/04/02 06:58:26;;;;;;;8.98;3.72;;;;;;;;;;10241651;28;20431;-83
2022/04/02 07:03:28;;;;;;;7.80;3.95;;;;;;;;;;10243209;28;20727;-83
2022/04/02 07:08:30;;;;;;;9.55;4.47;;;;;;;;;;10239077;28;20512;-83
2022/04/02 07:13:33;;;;;;;8.35;5.13;;;;;;;;;;10247908;28;20461;-84
2022/04/02 07:18:36;;;;;;;8.38;4.75;;;;;;;;;;10258105;28;20442;-83
2022/04/02 07:23:41;;;;;;;8.17;4.03;;;;;;;;;;10257265;28;20412;-82
2022/04/02 07:28:46;;;;;;;8.55;4.22;;;;;;;;;;10241534;28;20532;-83
2022/04/02 07:33:48;;;;;;;6.65;4.60;;;;;;;;;;10249535;28;20494;-83
2022/04/02 07:38:58;;;;;;;7.35;3.65;;;;;;;;;;10254544;28;20517;-82
2022/04/02 07:44:08;;;;;;;6.47;3.30;;;;;;;;;;10242552;28;20493;-83
2022/04/02 07:49:13;;;;;;;7.00;3.60;;;;;;;;;;10252934;28;21000;-82
2022/04/02 07:54:18;;;;;;;6.22;3.30;;;;;;;;;;10240170;28;20488;-82
2022/04/02 07:59:31;;;;;;;7.40;3.20;;;;;;;;;;10237884;28;20465;-83
2022/04/02 08:04:33;;;;;;;6.73;3.10;;;;;;;;;;10247476;28;20750;-83
2022/04/02 08:09:35;;;;;;;6.83;3.13;;;;;;;;;;10249790;28;20781;-83
2022/04/02 08:14:40;;;;;;;5.10;2.70;;;;;;;;;;10236184;28;20452;-82
2022/04/02 08:19:42;;;;;;;6.57;3.13;;;;;;;;;;10241827;28;20911;-82
2022/04/02 08:24:44;;;;;;;8.20;2.47;;;;;;;;;;10246504;28;20499;-83
2022/04/02 08:29:56;;;;;;;9.97;4.27;;;;;;;;;;10245054;28;20501;-83
2022/04/02 08:35:05;;;;;;;7.33;2.67;;;;;;;;;;10255964;28;20489;-84
2022/04/02 08:40:27;;;;;;;6.55;2.35;;;;;;;;;;10240629;28;20417;-84
2022/04/02 08:45:32;;;;;;;6.85;2.50;;;;;;;;;;10238023;28;20473;-84
2022/04/02 08:50:36;;;;;;;7.65;2.60;;;;;;;;;;10236944;28;20955;-84
2022/04/02 08:55:46;;;;;;;9.75;2.72;;;;;;;;;;10239890;28;20477;-84
2022/04/02 09:01:04;;;;;;;5.50;2.47;;;;;;;;;;10249314;28;20487;-84
2022/04/02 09:06:29;;;;;;;6.03;2.40;;;;;;;;;;10245393;28;20938;-86
2022/04/02 09:11:53;;;;;;;9.70;2.95;;;;;;;;;;10233601;28;20514;-85
2022/04/02 09:17:02;;;;;;;6.47;2.88;;;;;;;;;;10255391;28;20588;-78
2022/04/02 09:22:08;;;;;;;5.65;2.83;;;;;;;;;;10238352;28;20493;-85
2022/04/02 09:27:40;;;;;;;7.27;2.83;;;;;;;;;;10236593;28;20494;-84
2022/04/02 09:33:18;;;;;;;7.72;3.17;;;;;;;;;;10244135;28;20544;-84
2022/04/02 09:38:52;;;;;;;9.70;3.37;;;;;;;;;;10250621;28;20434;-84
2022/04/02 09:44:06;;;;;;;7.88;3.20;;;;;;;;;;10240734;28;20418;-84
2022/04/02 09:49:23;;;;;;;5.65;2.85;;;;;;;;;;10247887;28;20598;-85
2022/04/02 09:54:31;;;;;;;8.18;3.13;;;;;;;;;;10238836;28;20442;-84
2022/04/02 09:59:39;;;;;;;7.80;3.22;;;;;;;;;;10243631;28;20444;-86
2022/04/02 10:04:53;;;;;;;7.38;3.47;;;;;;;;;;10249212;28;20538;-86
2022/04/02 10:09:56;;;;;;;7.20;2.90;;;;;;;;;;10242939;28;20420;-85
2022/04/02 10:15:00;;;;;;;6.75;2.80;;;;;;;;;;10250441;28;20434;-86
2022/04/02 10:20:06;;;;;;;6.07;2.90;;;;;;;;;;10227628;28;20445;-85
2022/04/02 10:25:11;;;;;;;6.87;2.60;;;;;;;;;;10225799;28;20500;-85
2022/04/02 10:30:14;;;;;;;8.45;2.70;;;;;;;;;;10229048;28;20424;-85
2022/04/02 10:35:18;;;;;;;5.82;3.35;;;;;;;;;;10222224;28;20808;-84
2022/04/02 10:40:24;;;;;;;6.57;3.00;;;;;;;;;;10218498;28;20960;-86
2022/04/02 10:45:29;;;;;;;5.63;2.90;;;;;;;;;;10227496;28;20428;-85
2022/04/02 10:50:33;;;;;;;6.72;2.80;;;;;;;;;;10224742;28;20961;-85
2022/04/02 10:55:42;;;;;;;7.30;3.13;;;;;;;;;;10223713;28;20919;-84
2022/04/02 11:00:46;;;;;;;6.40;3.20;;;;;;;;;;10233042;28;20491;-85
2022/04/02 11:05:51;;;;;;;7.53;2.65;;;;;;;;;;10241728;28;20431;-86
2022/04/02 11:10:54;;;;;;;7.25;3.15;;;;;;;;;;10245197;28;20806;-85
2022/04/02 11:15:57;;;;;;;7.82;3.17;;;;;;;;;;10229413;28;20436;-85
2022/04/02 11:21:05;;;;;;;7.80;2.83;;;;;;;;;;10236607;28;20862;-85
2022/04/02 11:26:10;;;;;;;7.13;3.30;;;;;;;;;;10233888;28;20481;-91
2022/04/02 11:31:14;;;;;;;8.40;3.13;;;;;;;;;;10237372;28;20458;-83
2022/04/02 11:36:17;;;;;;;5.95;3.20;;;;;;;;;;10240725;28;20824;-83
2022/04/02 11:41:21;;;;;;;7.23;3.20;;;;;;;;;;10241892;28;20431;-82
2022/04/02 11:46:23;;;;;;;6.60;3.37;;;;;;;;;;10239885;28;20457;-82
2022/04/02 11:51:29;;;;;;;7.78;3.53;;;;;;;;;;10238916;28;20435;-82
2022/04/02 11:56:32;;;;;;;7.95;4.13;;;;;;;;;;10257231;28;20438;-82
2022/04/02 12:01:42;;;;;;;6.82;3.65;;;;;;;;;;10240773;28;20420;-84
2022/04/02 12:06:47;;;;;;;7.27;4.10;;;;;;;;;;10250647;28;20815;-81
2022/04/02 12:11:51;;;;;;;8.27;4.40;;;;;;;;;;10239869;29;20895;-82
2022/04/02 12:16:58;;;;;;;8.65;4.10;;;;;;;;;;10256235;28;20485;-82
2022/04/02 12:22:02;;;;;;;6.93;4.57;;;;;;;;;;10243231;28;20519;-80
2022/04/02 12:27:06;;;;;;;8.00;4.40;;;;;;;;;;10232629;28;20827;-82
2022/04/02 12:32:09;;;;;;;7.68;4.57;;;;;;;;;;10261239;28;20450;-82
2022/04/02 12:37:13;;;;;;;8.10;3.88;;;;;;;;;;10237021;29;20450;-81
2022/04/02 12:42:15;;;;;;;7.60;3.90;;;;;;;;;;10251434;28;20412;-82
2022/04/02 12:47:18;;;;;;;9.25;4.20;;;;;;;;;;10257973;28;20425;-82
2022/04/02 12:52:24;;;;;;;5.93;4.00;;;;;;;;;;10261980;28;20416;-82
2022/04/02 12:57:31;;;;;;;5.63;4.13;;;;;;;;;;10256208;28;20435;-81
2022/04/02 13:02:41;;;;;;;6.82;4.32;;;;;;;;;;10252439;28;20429;-82
2022/04/02 13:08:01;;;;;;;7.93;4.13;;;;;;;;;;10234991;28;20473;-81
2022/04/02 13:13:05;;;;;;;7.75;4.38;;;;;;;;;;10262842;28;20503;-81
2022/04/02 13:23:57;;;;;;;6.97;4.50;;;;;;;;;;10235812;28;20471;-81
2022/04/02 13:29:14;;;;;;;7.57;4.40;;;;;;;;;;10219148;28;20991;-81
2022/04/02 13:34:21;;;;;;;8.75;4.40;;;;;;;;;;10233932;28;20492;-82
2022/04/02 13:39:27;;;;;;;6.45;3.92;;;;;;;;;;10236716;28;20548;-82
2022/04/02 13:44:32;;;;;;;6.47;4.13;;;;;;;;;;10240065;28;20563;-83
2022/04/02 13:49:43;;;;;;;10.23;4.30;;;;;;;;;;10232866;28;20459;-82
2022/04/02 13:55:01;;;;;;;7.25;3.38;;;;;;;;;;10233614;28;20495;-82
2022/04/02 14:00:08;;;;;;;4.07;3.10;;;;;;;;;;10234235;28;20568;-82
2022/04/02 14:05:27;;;;;;;5.57;3.75;;;;;;;;;;10233272;28;20497;-82
2022/04/02 14:10:39;;;;;;;6.32;3.65;;;;;;;;;;10246970;28;20906;-82
2022/04/02 14:15:53;;;;;;;7.55;3.50;;;;;;;;;;10226091;28;20499;-82
2022/04/02 14:21:05;;;;;;;8.98;3.47;;;;;;;;;;10253018;28;21044;-80
2022/04/02 14:26:48;;;;;;;5.40;3.20;;;;;;;;;;10243921;28;20927;-81
2022/04/02 14:32:49;;;;;;;5.63;2.90;;;;;;;;;;10210387;28;20495;-81
2022/04/02 14:38:39;;;;;;;6.95;3.20;;;;;;;;;;10250222;28;20519;-82
2022/04/02 14:44:30;;;;;;;6.07;3.00;;;;;;;;;;10226653;28;20480;-81
2022/04/02 14:50:14;;;;;;;6.00;3.15;;;;;;;;;;10231238;28;20491;-81
2022/04/02 14:55:50;;;;;;;6.18;2.90;;;;;;;;;;10242230;28;20491;-80
2022/04/02 15:01:29;;;;;;;7.03;3.20;;;;;;;;;;10260963;28;20504;-80
2022/04/02 15:06:52;;;;;;;5.90;3.22;;;;;;;;;;10221848;28;20488;-81
2022/04/02 15:12:00;;;;;;;6.65;3.22;;;;;;;;;;10249483;28;21313;-81
2022/04/02 15:17:26;;;;;;;6.43;3.00;;;;;;;;;;10246473;28;20483;-81
2022/04/02 15:22:32;;;;;;;4.15;3.13;;;;;;;;;;10237997;28;20427;-82
2022/04/02 15:28:00;;;;;;;5.73;3.00;;;;;;;;;;10236726;28;20665;-82
2022/04/02 15:33:10;;;;;;;7.72;2.90;;;;;;;;;;10223603;28;20451;-82
2022/04/02 15:38:33;;;;;;;5.07;2.93;;;;;;;;;;10245744;28;20949;-81
2022/04/02 15:43:40;;;;;;;4.20;2.50;;;;;;;;;;10242410;28;20848;-82
2022/04/02 15:49:23;;;;;;;5.00;2.72;;;;;;;;;;10226520;28;20452;-81
2022/04/02 15:54:32;;;;;;;4.78;2.50;;;;;;;;;;10232039;28;20471;-82
2022/04/02 15:59:39;;;;;;;4.45;2.97;;;;;;;;;;10229615;28;20918;-82
2022/04/02 16:05:07;;;;;;;6.13;3.23;;;;;;;;;;10229472;28;20813;-81
2022/04/02 16:10:13;;;;;;;5.95;2.50;;;;;;;;;;10230386;28;20433;-81
2022/04/02 16:15:31;;;;;;;3.70;2.65;;;;;;;;;;10234337;28;21270;-81
2022/04/02 16:20:33;;;;;;;4.95;2.67;;;;;;;;;;10263106;28;20521;-81
2022/04/02 16:25:36;;;;;;;4.88;2.40;;;;;;;;;;10272312;28;20497;-81
2022/04/02 16:30:38;;;;;;;4.13;2.27;;;;;;;;;;10249729;28;20869;-81
2022/04/02 16:35:40;;;;;;;79.63;46.03;;;;;;;;;;10268754;28;20469;-80
2022/04/02 16:40:43;;;;;;;13.23;8.07;;;;;;;;;;10265907;28;20918;-81
2022/04/02 16:46:04;;;;;;;5.68;2.83;;;;;;;;;;10226244;28;20445;-80
2022/04/02 16:51:07;;;;;;;4.03;2.20;;;;;;;;;;10233574;28;20432;-82
2022/04/02 16:56:13;;;;;;;5.17;2.30;;;;;;;;;;10223344;28;20415;-81
2022/04/02 17:01:15;;;;;;;5.33;2.50;;;;;;;;;;10235867;28;20622;-81
2022/04/02 17:06:29;;;;;;;4.25;2.10;;;;;;;;;;10237317;28;20434;-82
2022/04/02 17:11:40;;;;;;;4.60;2.80;;;;;;;;;;10243037;28;20583;-82
2022/04/02 17:16:43;;;;;;;9.57;6.10;;;;;;;;;;10252554;28;20492;-81
2022/04/02 17:21:49;;;;;;;7.60;4.18;;;;;;;;;;10293358;28;20517;-76
2022/04/02 17:27:07;;;;;;;17.98;14.75;;;;;;;;;;10299120;28;20466;-83
2022/04/02 17:32:11;;;;;;;5.70;2.85;;;;;;;;;;10286112;28;20485;-82
2022/04/02 17:37:14;;;;;;;5.18;2.65;;;;;;;;;;10293459;28;20551;-83
2022/04/02 17:42:17;;;;;;;7.07;4.93;;;;;;;;;;10305139;28;20406;-83
2022/04/02 17:47:25;;;;;;;7.80;3.30;;;;;;;;;;10307886;28;20475;-82
2022/04/02 17:52:27;;;;;;;4.90;3.47;;;;;;;;;;10304114;28;20577;-84
2022/04/02 17:57:31;;;;;;;6.43;3.30;;;;;;;;;;10295633;28;20951;-83
2022/04/02 18:02:32;;;;;;;6.55;3.72;;;;;;;;;;10287678;28;20460;-82
2022/04/02 18:07:36;;;;;;;7.85;4.40;;;;;;;;;;10306037;28;20551;-81
2022/04/02 18:12:39;;;;;;;15.10;11.23;;;;;;;;;;10303265;28;20424;-83
2022/04/02 18:17:41;;;;;;;10.85;7.78;;;;;;;;;;10297550;28;20480;-82
2022/04/02 18:22:44;;;;;;;11.48;6.80;;;;;;;;;;10306042;28;20432;-82
2022/04/02 18:27:47;;;;;;;9.40;6.47;;;;;;;;;;10273048;28;20428;-84
2022/04/02 18:32:49;;;;;;;10.10;6.35;;;;;;;;;;10280624;28;20759;-83
2022/04/02 18:37:51;;;;;;;10.45;7.47;;;;;;;;;;10278082;28;20788;-83
2022/04/02 18:42:54;;;;;;;17.57;10.70;;;;;;;;;;10273301;28;20926;-82
2022/04/02 18:47:56;;;;;;;15.20;9.63;;;;;;;;;;10275204;28;20455;-83
2022/04/02 18:52:58;;;;;;;23.07;14.10;;;;;;;;;;10291114;28;20799;-83
2022/04/02 18:58:01;;;;;;;17.70;13.02;;;;;;;;;;10310414;28;20885;-82
2022/04/02 19:03:03;;;;;;;11.40;8.70;;;;;;;;;;10300020;28;20468;-84
2022/04/02 19:08:05;;;;;;;13.27;8.80;;;;;;;;;;10303976;28;20448;-83
2022/04/02 19:13:08;;;;;;;12.05;9.25;;;;;;;;;;10314375;28;20511;-83
2022/04/02 19:18:10;;;;;;;11.15;7.60;;;;;;;;;;10314333;28;20539;-83
2022/04/02 19:23:12;;;;;;;11.77;8.05;;;;;;;;;;10311455;28;20503;-82
2022/04/02 19:28:16;;;;;;;11.40;8.48;;;;;;;;;;10310465;28;20401;-82
2022/04/02 19:33:18;;;;;;;12.98;9.00;;;;;;;;;;10302107;28;21040;-84
2022/04/02 19:38:21;;;;;;;12.07;8.00;;;;;;;;;;10310278;28;20855;-83
2022/04/02 19:43:24;;;;;;;9.88;7.70;;;;;;;;;;10306578;28;20434;-82
2022/04/02 19:48:26;;;;;;;13.53;8.30;;;;;;;;;;10308972;28;20415;-83
2022/04/02 19:53:28;;;;;;;11.68;7.90;;;;;;;;;;10278957;28;20755;-83
2022/04/02 19:58:31;;;;;;;16.23;10.93;;;;;;;;;;10265191;28;20432;-83
2022/04/02 20:03:33;;;;;;;13.10;10.10;;;;;;;;;;10268525;28;20551;-82
2022/04/02 20:08:40;;;;;;;12.93;9.30;;;;;;;;;;10266848;28;20435;-83
2022/04/02 20:13:44;;;;;;;19.50;12.05;;;;;;;;;;10259129;28;21003;-83
2022/04/02 20:18:46;;;;;;;17.65;11.55;;;;;;;;;;10265719;28;20481;-83
2022/04/02 20:23:49;;;;;;;16.73;10.63;;;;;;;;;;10256900;28;20455;-83
2022/04/02 20:28:52;;;;;;;14.77;10.70;;;;;;;;;;10260100;28;20469;-84
2022/04/02 20:33:54;;;;;;;14.03;9.80;;;;;;;;;;10274003;28;20468;-83
2022/04/02 20:38:56;;;;;;;12.52;8.98;;;;;;;;;;10269672;28;20526;-89
2022/04/02 20:43:59;;;;;;;9.23;5.90;;;;;;;;;;10266186;28;20780;-84
2022/04/02 20:49:01;;;;;;;8.10;6.07;;;;;;;;;;10277219;28;20468;-84
2022/04/02 20:54:03;;;;;;;9.80;6.90;;;;;;;;;;10269845;28;20424;-83
2022/04/02 20:59:07;;;;;;;12.63;7.07;;;;;;;;;;10274120;28;20531;-84
2022/04/02 21:04:09;;;;;;;11.10;6.65;;;;;;;;;;10302057;28;20449;-85
2022/04/02 21:09:10;;;;;;;9.15;6.43;;;;;;;;;;10311778;28;20522;-83
2022/04/02 21:14:14;;;;;;;10.27;6.97;;;;;;;;;;10302270;28;21293;-83
2022/04/02 21:19:15;;;;;;;8.88;6.43;;;;;;;;;;10301754;28;20535;-83
2022/04/02 21:24:19;;;;;;;8.63;5.97;;;;;;;;;;10297425;28;20514;-83
2022/04/02 21:29:23;;;;;;;8.65;5.75;;;;;;;;;;10269418;28;20406;-83
2022/04/02 21:34:25;;;;;;;9.38;6.10;;;;;;;;;;10270696;28;20511;-84
2022/04/02 21:39:28;;;;;;;9.80;6.25;;;;;;;;;;10257755;28;20434;-84
2022/04/02 21:44:31;;;;;;;8.10;5.97;;;;;;;;;;10259957;28;20407;-83
2022/04/02 21:49:34;;;;;;;8.15;6.03;;;;;;;;;;10266853;28;20501;-83
2022/04/02 21:54:36;;;;;;;10.30;6.50;;;;;;;;;;10266548;28;20418;-84
2022/04/02 21:59:39;;;;;;;11.20;6.32;;;;;;;;;;10260780;28;20453;-85
2022/04/02 22:04:42;;;;;;;10.85;6.20;;;;;;;;;;10255136;28;20501;-84
2022/04/02 22:09:45;;;;;;;8.20;5.90;;;;;;;;;;10255348;28;20416;-84
2022/04/02 22:14:48;;;;;;;10.95;6.80;;;;;;;;;;10267366;28;20422;-84
2022/04/02 22:19:50;;;;;;;9.27;7.17;;;;;;;;;;10276884;28;20455;-83
2022/04/02 22:24:51;;;;;;;11.10;6.88;;;;;;;;;;10273532;28;20884;-84
2022/04/02 22:29:55;;;;;;;10.18;6.55;;;;;;;;;;10273464;28;20416;-84
2022/04/02 22:34:57;;;;;;;9.10;6.23;;;;;;;;;;10273070;28;20481;-84
2022/04/02 22:39:58;;;;;;;9.80;6.57;;;;;;;;;;10274304;28;20430;-84
2022/04/02 22:45:02;;;;;;;9.00;6.20;;;;;;;;;;10274144;28;20661;-83
2022/04/02 22:50:04;;;;;;;9.30;6.27;;;;;;;;;;10274123;28;20501;-84
2022/04/02 22:55:07;;;;;;;10.50;6.85;;;;;;;;;;10267054;28;20436;-84
2022/04/02 23:00:11;;;;;;;8.93;6.63;;;;;;;;;;10280883;28;20460;-84
2022/04/02 23:05:15;;;;;;;9.83;6.43;;;;;;;;;;10278017;28;20418;-84
2022/04/02 23:10:17;;;;;;;8.60;7.22;;;;;;;;;;10273915;28;20417;-84
2022/04/02 23:15:20;;;;;;;10.07;7.07;;;;;;;;;;10280813;28;20495;-84
2022/04/02 23:20:23;;;;;;;10.20;6.82;;;;;;;;;;10281718;28;20430;-84
2022/04/02 23:25:25;;;;;;;9.13;6.63;;;;;;;;;;10285030;28;20859;-85
2022/04/02 23:30:29;;;;;;;9.73;6.40;;;;;;;;;;10282171;28;20407;-85
2022/04/02 23:35:31;;;;;;;9.20;6.38;;;;;;;;;;10285024;28;20777;-85
2022/04/02 23:40:32;;;;;;;7.30;6.55;;;;;;;;;;10281883;28;20542;-85
2022/04/02 23:45:36;;;;;;;8.80;6.57;;;;;;;;;;10281323;28;20497;-84
2022/04/02 23:50:41;;;;;;;9.37;6.70;;;;;;;;;;10284580;28;20549;-85
2022/04/02 23:55:43;;;;;;;9.37;6.80;;;;;;;;;;10284915;28;20418;-85
